UAL1228 KLAX-KEWR
Flight info
| Callsign | UAL1228 |
|---|---|
| Flight time | N/A |
| Altitude | 35000 |
| Route | ORCKA5 LAS J146 DVC HBU MCK/N0449F350 OVR DSM EVOTE NELLS KEEHO J584 SLT FQM3 |
| Aircraft | B738/M-SDE2E3FGHIRWXY/LB1 |
Departure
| Time | N/A |
|---|---|
| Airport | Los Angeles International Airport (KLAX) |
Arrival
| Time | 2026-04-25 17:00 |
|---|---|
| Airport | Newark Liberty International Airport (KEWR) |
| Time | Latitude | Longitude | Altitude | Speed | Heading |
|---|---|---|---|---|---|
| 2026-04-25 16:29 | 41.36586 | -76.95659 | 34934 ft | 505 kts | 99° |
| 2026-04-25 16:30 | 41.36060 | -76.92149 | 34933 ft | 506 kts | 99° |
| 2026-04-25 16:31 | 41.35932 | -76.91296 | 34937 ft | 506 kts | 99° |
| 2026-04-25 16:32 | 41.35184 | -76.86324 | 34931 ft | 505 kts | 99° |
| 2026-04-25 16:32 | 41.34491 | -76.81743 | 34693 ft | 501 kts | 99° |
| 2026-04-25 16:33 | 41.33738 | -76.77284 | 33970 ft | 496 kts | 103° |
| 2026-04-25 16:33 | 41.32796 | -76.72904 | 33167 ft | 491 kts | 106° |
| 2026-04-25 16:33 | 41.31726 | -76.68626 | 32356 ft | 486 kts | 108° |
| 2026-04-25 16:33 | 41.30602 | -76.64443 | 31662 ft | 478 kts | 110° |
| 2026-04-25 16:34 | 41.29464 | -76.60335 | 30966 ft | 470 kts | 111° |
| 2026-04-25 16:34 | 41.28342 | -76.56307 | 30286 ft | 462 kts | 111° |
| 2026-04-25 16:34 | 41.27261 | -76.52408 | 29600 ft | 455 kts | 111° |
| 2026-04-25 16:34 | 41.26170 | -76.48480 | 28831 ft | 449 kts | 111° |
| 2026-04-25 16:35 | 41.25098 | -76.44601 | 28139 ft | 441 kts | 111° |
| 2026-04-25 16:35 | 41.24068 | -76.40855 | 27446 ft | 434 kts | 111° |
| 2026-04-25 16:35 | 41.23041 | -76.37109 | 26703 ft | 429 kts | 111° |
| 2026-04-25 16:35 | 41.22032 | -76.33388 | 25904 ft | 425 kts | 111° |
| 2026-04-25 16:36 | 41.21043 | -76.29720 | 25145 ft | 421 kts | 111° |
| 2026-04-25 16:36 | 41.20384 | -76.27287 | 24659 ft | 417 kts | 111° |
| 2026-04-25 16:36 | 41.19088 | -76.22532 | 23782 ft | 409 kts | 111° |
| 2026-04-25 16:36 | 41.18133 | -76.19035 | 23079 ft | 405 kts | 111° |
| 2026-04-25 16:37 | 41.17184 | -76.15547 | 22440 ft | 401 kts | 111° |
| 2026-04-25 16:37 | 41.16239 | -76.12085 | 22190 ft | 400 kts | 111° |
| 2026-04-25 16:37 | 41.15290 | -76.08621 | 21925 ft | 402 kts | 111° |
| 2026-04-25 16:37 | 41.14333 | -76.05128 | 21689 ft | 400 kts | 111° |
| 2026-04-25 16:38 | 41.13390 | -76.01685 | 21443 ft | 399 kts | 111° |
| 2026-04-25 16:38 | 41.12439 | -75.98210 | 21205 ft | 397 kts | 111° |
| 2026-04-25 16:38 | 41.11509 | -75.94813 | 20972 ft | 396 kts | 110° |
| 2026-04-25 16:38 | 41.10566 | -75.91392 | 20730 ft | 394 kts | 111° |
| 2026-04-25 16:39 | 41.09626 | -75.87990 | 20487 ft | 393 kts | 111° |
| 2026-04-25 16:39 | 41.08679 | -75.84579 | 20252 ft | 393 kts | 110° |
| 2026-04-25 16:39 | 41.07746 | -75.81216 | 20014 ft | 390 kts | 110° |
| 2026-04-25 16:39 | 41.06817 | -75.77866 | 19705 ft | 384 kts | 110° |
| 2026-04-25 16:40 | 41.05905 | -75.74571 | 19262 ft | 383 kts | 110° |
| 2026-04-25 16:40 | 41.04994 | -75.71279 | 18758 ft | 382 kts | 110° |
| 2026-04-25 16:40 | 41.04077 | -75.67984 | 18252 ft | 381 kts | 110° |
| 2026-04-25 16:40 | 41.03173 | -75.64734 | 17742 ft | 380 kts | 110° |
| 2026-04-25 16:41 | 41.01960 | -75.60383 | 16994 ft | 381 kts | 110° |
| 2026-04-25 16:41 | 41.01650 | -75.59273 | 16805 ft | 382 kts | 111° |
| 2026-04-25 16:41 | 40.99514 | -75.51623 | 15583 ft | 380 kts | 111° |
| 2026-04-25 16:42 | 40.98592 | -75.48326 | 15032 ft | 379 kts | 111° |
| 2026-04-25 16:42 | 40.97680 | -75.45065 | 14507 ft | 374 kts | 111° |
| 2026-04-25 16:42 | 40.96790 | -75.41885 | 14015 ft | 372 kts | 111° |
| 2026-04-25 16:42 | 40.95888 | -75.38660 | 13503 ft | 371 kts | 111° |
| 2026-04-25 16:43 | 40.95005 | -75.35505 | 13001 ft | 370 kts | 112° |
| 2026-04-25 16:43 | 40.94115 | -75.32326 | 12479 ft | 368 kts | 112° |
| 2026-04-25 16:43 | 40.93232 | -75.29179 | 11996 ft | 365 kts | 112° |
| 2026-04-25 16:43 | 40.92350 | -75.26038 | 11481 ft | 363 kts | 112° |
| 2026-04-25 16:44 | 40.91476 | -75.22929 | 10990 ft | 361 kts | 112° |
| 2026-04-25 16:44 | 40.90605 | -75.19830 | 10496 ft | 358 kts | 112° |
| 2026-04-25 16:44 | 40.89748 | -75.16782 | 10092 ft | 353 kts | 112° |
| 2026-04-25 16:44 | 40.88910 | -75.13808 | 9936 ft | 340 kts | 112° |
| 2026-04-25 16:45 | 40.88096 | -75.10924 | 9577 ft | 335 kts | 113° |
| 2026-04-25 16:45 | 40.87295 | -75.08085 | 9144 ft | 323 kts | 113° |
| 2026-04-25 16:45 | 40.86531 | -75.05363 | 8753 ft | 311 kts | 112° |
| 2026-04-25 16:45 | 40.85790 | -75.02721 | 8350 ft | 300 kts | 113° |
| 2026-04-25 16:46 | 40.85082 | -75.00204 | 7983 ft | 289 kts | 113° |
| 2026-04-25 16:46 | 40.84394 | -74.97757 | 7631 ft | 279 kts | 113° |
| 2026-04-25 16:46 | 40.83733 | -74.95413 | 7298 ft | 269 kts | 114° |
| 2026-04-25 16:46 | 40.83294 | -74.93866 | 7096 ft | 267 kts | 114° |
| 2026-04-25 16:47 | 40.82436 | -74.90840 | 6898 ft | 267 kts | 113° |
| 2026-04-25 16:47 | 40.81660 | -74.88577 | 6782 ft | 273 kts | 123° |
| 2026-04-25 16:47 | 40.80656 | -74.86459 | 6521 ft | 268 kts | 127° |
| 2026-04-25 16:47 | 40.79622 | -74.84451 | 6267 ft | 263 kts | 128° |
| 2026-04-25 16:48 | 40.78590 | -74.82471 | 6021 ft | 260 kts | 127° |
| 2026-04-25 16:48 | 40.77566 | -74.80528 | 5914 ft | 256 kts | 128° |
| 2026-04-25 16:48 | 40.76543 | -74.78593 | 5918 ft | 259 kts | 128° |
| 2026-04-25 16:48 | 40.75509 | -74.76641 | 5911 ft | 260 kts | 128° |
| 2026-04-25 16:49 | 40.74487 | -74.74709 | 5918 ft | 260 kts | 128° |
| 2026-04-25 16:49 | 40.73455 | -74.72754 | 5914 ft | 259 kts | 127° |
| 2026-04-25 16:49 | 40.72415 | -74.70790 | 5919 ft | 259 kts | 127° |
| 2026-04-25 16:49 | 40.71379 | -74.68833 | 5925 ft | 259 kts | 127° |
| 2026-04-25 16:50 | 40.70362 | -74.66914 | 5923 ft | 258 kts | 128° |
| 2026-04-25 16:50 | 40.69332 | -74.64967 | 5920 ft | 257 kts | 127° |
| 2026-04-25 16:50 | 40.67969 | -74.62394 | 5926 ft | 258 kts | 128° |
| 2026-04-25 16:50 | 40.67284 | -74.61098 | 5886 ft | 257 kts | 127° |
| 2026-04-25 16:51 | 40.66276 | -74.59194 | 5615 ft | 254 kts | 127° |
| 2026-04-25 16:51 | 40.65263 | -74.57291 | 5315 ft | 250 kts | 127° |
| 2026-04-25 16:51 | 40.64269 | -74.55445 | 5001 ft | 248 kts | 127° |
| 2026-04-25 16:51 | 40.63598 | -74.54208 | 4929 ft | 244 kts | 127° |
| 2026-04-25 16:52 | 40.62278 | -74.51792 | 4937 ft | 249 kts | 127° |
| 2026-04-25 16:52 | 40.61269 | -74.49953 | 4855 ft | 246 kts | 127° |
| 2026-04-25 16:52 | 40.60280 | -74.48153 | 4628 ft | 232 kts | 127° |
| 2026-04-25 16:52 | 40.59378 | -74.46510 | 4499 ft | 216 kts | 127° |
| 2026-04-25 16:53 | 40.57679 | -74.43430 | 3804 ft | 204 kts | 127° |
| 2026-04-25 16:53 | 40.56837 | -74.41938 | 3412 ft | 201 kts | 127° |
| 2026-04-25 16:53 | 40.55993 | -74.40466 | 3006 ft | 198 kts | 127° |
| 2026-04-25 16:54 | 40.55167 | -74.39047 | 2601 ft | 196 kts | 127° |
| 2026-04-25 16:54 | 40.54332 | -74.37627 | 2209 ft | 195 kts | 127° |
| 2026-04-25 16:54 | 40.53508 | -74.36234 | 1964 ft | 190 kts | 127° |
| 2026-04-25 16:54 | 40.52710 | -74.34892 | 1936 ft | 182 kts | 128° |
| 2026-04-25 16:55 | 40.51926 | -74.33572 | 1939 ft | 185 kts | 125° |
| 2026-04-25 16:55 | 40.51492 | -74.32011 | 1941 ft | 186 kts | 94° |
| 2026-04-25 16:55 | 40.51859 | -74.30364 | 1947 ft | 195 kts | 63° |
| 2026-04-25 16:55 | 40.52664 | -74.28930 | 1941 ft | 196 kts | 57° |
| 2026-04-25 16:56 | 40.53504 | -74.27509 | 1944 ft | 196 kts | 58° |
| 2026-04-25 16:56 | 40.54370 | -74.26138 | 1946 ft | 194 kts | 49° |
| 2026-04-25 16:56 | 40.55453 | -74.25183 | 1944 ft | 185 kts | 32° |
| 2026-04-25 16:56 | 40.56623 | -74.24455 | 1948 ft | 185 kts | 31° |
| 2026-04-25 16:57 | 40.57727 | -74.23769 | 1950 ft | 166 kts | 33° |
| 2026-04-25 16:57 | 40.58404 | -74.23334 | 1963 ft | 154 kts | 33° |
| 2026-04-25 16:57 | 40.59660 | -74.22534 | 1884 ft | 149 kts | 33° |
| 2026-04-25 16:57 | 40.60590 | -74.21948 | 1688 ft | 146 kts | 33° |
| 2026-04-25 16:58 | 40.61501 | -74.21375 | 1491 ft | 146 kts | 33° |
| 2026-04-25 16:58 | 40.62410 | -74.20798 | 1293 ft | 145 kts | 33° |
| 2026-04-25 16:58 | 40.63322 | -74.20222 | 1092 ft | 144 kts | 32° |
| 2026-04-25 16:58 | 40.64224 | -74.19654 | 891 ft | 143 kts | 31° |
| 2026-04-25 16:59 | 40.65120 | -74.19089 | 717 ft | 143 kts | 31° |
| 2026-04-25 16:59 | 40.66023 | -74.18524 | 495 ft | 142 kts | 30° |
| 2026-04-25 16:59 | 40.66898 | -74.17979 | 319 ft | 142 kts | 32° |
| 2026-04-25 16:59 | 40.67781 | -74.17412 | 117 ft | 141 kts | 31° |
| 2026-04-25 17:00 | 40.68657 | -74.16854 | 23 ft | 125 kts | 28° |
| 2026-04-25 17:00 | 40.69202 | -74.16508 | 23 ft | 54 kts | 26° |
| 2026-04-25 17:00 | 40.69466 | -74.16338 | 23 ft | 28 kts | 25° |
| 2026-04-25 17:00 | 40.69632 | -74.16293 | 23 ft | 20 kts | 358° |
| 2026-04-25 17:01 | 40.69767 | -74.16305 | 23 ft | 18 kts | 356° |
| 2026-04-25 17:01 | 40.69841 | -74.16327 | 23 ft | 8 kts | 317° |
| 2026-04-25 17:01 | 40.69880 | -74.16421 | 23 ft | 14 kts | 295° |
| 2026-04-25 17:01 | 40.69905 | -74.16541 | 22 ft | 13 kts | 275° |
| 2026-04-25 17:02 | 40.69913 | -74.16664 | 22 ft | 16 kts | 275° |
| 2026-04-25 17:02 | 40.69855 | -74.16763 | 22 ft | 15 kts | 175° |
| 2026-04-25 17:02 | 40.69736 | -74.16830 | 22 ft | 21 kts | 206° |
| 2026-04-25 17:02 | 40.69634 | -74.16894 | 22 ft | 27 kts | 205° |
| 2026-04-25 17:03 | 40.69446 | -74.17013 | 23 ft | 14 kts | 205° |
| 2026-04-25 17:03 | 40.69429 | -74.17062 | 22 ft | 5 kts | 328° |
| 2026-04-25 17:03 | 40.69451 | -74.17096 | 22 ft | 4 kts | 281° |
| 2026-04-25 17:03 | 40.69444 | -74.17130 | 22 ft | 4 kts | 229° |
| 2026-04-25 17:04 | 40.69429 | -74.17153 | 22 ft | 2 kts | 238° |
| 2026-04-25 17:04 | 40.69424 | -74.17170 | 22 ft | 1 kts | 256° |
| 2026-04-25 17:04 | 40.69421 | -74.17184 | 22 ft | 2 kts | 257° |
| 2026-04-25 17:04 | 40.69420 | -74.17191 | 22 ft | 1 kts | 257° |
| 2026-04-25 17:05 | 40.69420 | -74.17192 | 22 ft | 0 kts | 257° |